Time;durP1;ratioP1;P1;durP2;ratioP2;P2;SDS_P1;SDS_P2;PMS_P1;PMS_P2;Temp;Humidity;BMP_temperature;BMP_pressure;BME280_temperature;BME280_humidity;BME280_pressure;Samples;Min_cycle;Max_cycle;Signal;HPM_P1;HPM_P2
2021/06/21 00:00:14;;;;;;;8.50;2.05;;;;;;;19.13;86.36;99694.47;1693428;85;21379;-80
2021/06/21 00:03:19;;;;;;;5.85;1.77;;;;;;;19.14;86.34;99697.53;1693616;85;21339;-80
2021/06/21 00:06:25;;;;;;;9.50;2.15;;;;;;;19.19;86.25;99689.02;1693613;85;21307;-80
2021/06/21 00:09:30;;;;;;;11.12;2.00;;;;;;;19.22;86.07;99689.37;1693770;85;21299;-80
2021/06/21 00:12:37;;;;;;;7.37;2.10;;;;;;;19.26;86.06;99688.34;1693632;85;21854;-80
2021/06/21 00:15:42;;;;;;;8.30;1.70;;;;;;;19.29;85.87;99690.59;1693513;85;21350;-80
2021/06/21 00:18:48;;;;;;;13.00;1.95;;;;;;;19.31;85.53;99693.98;1692064;83;21887;-80
2021/06/21 00:21:54;;;;;;;5.42;1.72;;;;;;;19.28;85.44;99690.30;1703907;84;21174;-80
2021/06/21 00:25:01;;;;;;;10.50;2.40;;;;;;;19.28;85.45;99692.53;1705544;84;21279;-80
2021/06/21 00:28:06;;;;;;;5.78;1.87;;;;;;;19.26;85.37;99694.72;1705529;84;21169;-80
2021/06/21 00:31:11;;;;;;;11.60;2.00;;;;;;;19.24;85.29;99698.81;1705270;84;21331;-80
2021/06/21 00:34:16;;;;;;;8.08;2.02;;;;;;;19.21;85.36;99703.48;1705499;84;21735;-80
2021/06/21 00:37:20;;;;;;;10.82;2.42;;;;;;;19.18;85.54;99710.36;1705444;84;21808;-80
2021/06/21 00:40:25;;;;;;;11.28;2.30;;;;;;;19.13;85.48;99701.94;1705456;84;21331;-80
2021/06/21 00:43:30;;;;;;;22.60;2.55;;;;;;;19.06;85.78;99696.55;1705453;84;21213;-80
2021/06/21 00:46:34;;;;;;;8.08;1.70;;;;;;;19.01;86.02;99692.84;1678434;85;21299;-80
2021/06/21 00:49:40;;;;;;;3.95;1.87;;;;;;;18.98;86.37;99696.94;1705505;84;21272;-80
2021/06/21 00:52:45;;;;;;;9.03;1.98;;;;;;;19.00;86.55;99696.68;1705440;84;21202;-80
2021/06/21 00:55:52;;;;;;;8.75;1.80;;;;;;;19.02;86.46;99705.06;1705506;84;21276;-80
2021/06/21 00:59:03;;;;;;;20.20;2.40;;;;;;;19.01;86.43;99702.00;1705500;84;21280;-80
2021/06/21 01:02:08;;;;;;;14.73;2.00;;;;;;;18.98;86.21;99699.71;1705479;84;21802;-80
2021/06/21 01:05:21;;;;;;;4.58;1.95;;;;;;;18.95;85.67;99700.19;1705498;84;21270;-80
2021/06/21 01:08:26;;;;;;;11.00;2.08;;;;;;;18.89;86.21;99697.87;1705442;84;21177;-80
2021/06/21 01:11:35;;;;;;;8.40;1.90;;;;;;;18.89;86.77;99702.57;1705473;84;21335;-80
2021/06/21 01:14:49;;;;;;;9.13;1.92;;;;;;;18.90;86.63;99704.25;1705455;84;21839;-80
2021/06/21 01:18:06;;;;;;;9.03;1.72;;;;;;;18.87;86.35;99701.98;1705476;84;21276;-80
2021/06/21 01:21:55;;;;;;;8.10;2.35;;;;;;;18.84;86.65;99697.77;1683729;84;21185;-80
2021/06/21 01:25:11;;;;;;;8.83;2.20;;;;;;;18.77;86.15;99703.13;1694090;85;21318;-80
2021/06/21 01:28:41;;;;;;;7.62;1.95;;;;;;;18.64;86.23;99706.45;1686003;85;21756;-80
2021/06/21 01:31:56;;;;;;;4.17;1.90;;;;;;;18.57;86.89;99707.11;1693880;85;21334;-80
2021/06/21 01:35:04;;;;;;;8.48;2.37;;;;;;;18.53;87.21;99705.91;1686038;85;21386;-80
2021/06/21 01:38:13;;;;;;;8.08;1.80;;;;;;;18.50;87.47;99708.35;1693940;85;21274;-80
2021/06/21 01:41:25;;;;;;;7.75;2.08;;;;;;;18.51;87.81;99715.02;1686031;85;21208;-80
2021/06/21 01:44:30;;;;;;;8.03;2.27;;;;;;;18.48;87.32;99719.65;1693996;85;21286;-80
2021/06/21 01:47:34;;;;;;;5.65;1.90;;;;;;;18.42;86.90;99729.48;1685759;85;21359;-80
2021/06/21 01:50:40;;;;;;;8.30;2.20;;;;;;;18.37;87.46;99724.66;1693947;85;21266;-80
2021/06/21 01:53:46;;;;;;;7.55;2.17;;;;;;;18.35;87.68;99726.84;1685977;85;21319;-80
2021/06/21 01:56:53;;;;;;;6.35;2.33;;;;;;;18.35;88.03;99719.92;1671476;85;21944;-80
2021/06/21 01:59:59;;;;;;;4.60;2.10;;;;;;;18.38;88.32;99724.95;1685975;85;21181;-80
2021/06/21 02:03:04;;;;;;;11.80;2.22;;;;;;;18.36;88.02;99720.22;1693900;85;21164;-80
2021/06/21 02:06:10;;;;;;;7.97;2.12;;;;;;;18.32;87.63;99721.23;1686022;85;21287;-80
2021/06/21 02:09:16;;;;;;;9.68;2.35;;;;;;;18.33;87.70;99720.14;1693962;85;21274;-80
2021/06/21 02:12:24;;;;;;;10.13;2.35;;;;;;;18.35;87.53;99715.77;1685943;85;21192;-80
2021/06/21 02:15:32;;;;;;;15.10;2.30;;;;;;;18.38;87.21;99715.27;1693867;85;21910;-80
2021/06/21 02:18:37;;;;;;;10.98;1.98;;;;;;;18.47;87.64;99715.75;1686035;85;21284;-80
2021/06/21 02:21:43;;;;;;;9.30;2.17;;;;;;;18.59;87.08;99717.42;1685479;83;21346;-80
2021/06/21 02:24:49;;;;;;;10.63;2.77;;;;;;;18.67;86.61;99716.73;1684507;85;21177;-80
2021/06/21 02:27:53;;;;;;;13.60;2.22;;;;;;;18.76;86.49;99723.62;1709774;84;21332;-80
2021/06/21 02:30:59;;;;;;;7.42;2.05;;;;;;;18.83;86.33;99720.19;1709685;84;21279;-80
2021/06/21 02:34:04;;;;;;;9.23;2.08;;;;;;;18.96;86.36;99716.27;1709632;84;21882;-80
2021/06/21 02:37:10;;;;;;;12.50;2.08;;;;;;;19.20;86.11;99722.05;1709763;84;21700;-80
2021/06/21 02:40:17;;;;;;;8.10;1.77;;;;;;;19.47;84.88;99717.28;1709766;84;21280;-80
2021/06/21 02:43:22;;;;;;;6.22;2.58;;;;;;;19.73;84.07;99712.53;1709771;84;21271;-80
2021/06/21 02:46:27;;;;;;;4.85;2.20;;;;;;;20.06;83.53;99715.86;1709734;84;21268;-80
2021/06/21 02:49:26;;;;;;;7.55;1.75;;;;;;;20.48;82.43;99720.98;1709771;84;21169;-80
2021/06/21 02:52:33;;;;;;;10.65;2.60;;;;;;;20.93;81.00;99718.52;1709815;84;21287;-80
2021/06/21 02:55:25;;;;;;;8.45;2.08;;;;;;;21.37;79.22;99722.70;1684502;85;21185;-80
2021/06/21 02:58:31;;;;;;;10.60;1.87;;;;;;;21.78;77.52;99717.53;1709749;84;21280;-80
2021/06/21 03:01:36;;;;;;;8.93;2.40;;;;;;;22.15;75.79;99723.17;1709709;84;21275;-80
2021/06/21 03:04:41;;;;;;;10.75;1.52;;;;;;;22.50;74.18;99723.99;1709714;84;21846;-80
2021/06/21 03:07:45;;;;;;;18.23;2.37;;;;;;;22.74;73.21;99724.97;1709706;84;21162;-80
2021/06/21 03:10:52;;;;;;;8.98;2.60;;;;;;;22.97;72.64;99722.33;1709676;84;21799;-80
2021/06/21 03:13:59;;;;;;;4.70;1.55;;;;;;;23.18;71.82;99717.92;1709724;84;21279;-80
2021/06/21 03:16:59;;;;;;;6.65;2.30;;;;;;;23.37;70.45;99722.45;1682977;85;21233;-80
2021/06/21 03:20:03;;;;;;;10.72;2.20;;;;;;;23.53;70.18;99728.93;1709672;84;21276;-80
2021/06/21 03:23:10;;;;;;;8.33;1.82;;;;;;;23.71;69.29;99720.06;1704994;84;21204;-80
2021/06/21 03:26:15;;;;;;;9.38;1.92;;;;;;;23.87;68.09;99720.07;1707705;84;21268;-80
2021/06/21 03:29:25;;;;;;;9.75;2.40;;;;;;;23.85;67.78;99723.12;1707711;84;21328;-80
2021/06/21 03:32:41;;;;;;;3.58;1.65;;;;;;;23.78;68.07;99718.94;1743114;82;21308;-80
2021/06/21 03:35:47;;;;;;;4.67;2.33;;;;;;;23.78;67.41;99727.32;1743060;82;21297;-80
2021/06/21 03:38:53;;;;;;;4.37;2.05;;;;;;;23.76;67.17;99726.21;1743076;82;21323;-80
2021/06/21 06:16:25;;;;;;;55.05;8.85;;;;;;;25.82;64.28;99799.62;1761281;81;21265;-80
2021/06/21 06:19:31;;;;;;;46.23;8.03;;;;;;;25.86;64.10;99800.16;1752410;81;22175;-80
2021/06/21 06:22:35;;;;;;;70.35;10.65;;;;;;;25.87;63.75;99795.38;1764479;81;21137;-80
2021/06/21 06:25:40;;;;;;;73.52;9.63;;;;;;;25.91;64.74;99800.69;1764447;81;21265;-80
2021/06/21 06:28:47;;;;;;;87.75;11.93;;;;;;;25.99;64.72;99796.70;1764495;81;21291;-80
2021/06/21 06:31:52;;;;;;;116.20;15.28;;;;;;;26.11;64.46;99794.95;1764595;81;21260;-80
2021/06/21 06:34:56;;;;;;;94.72;12.73;;;;;;;26.24;64.12;99794.27;1764502;81;21295;-80
2021/06/21 06:38:02;;;;;;;142.85;20.25;;;;;;;26.36;64.31;99804.29;1764496;81;21264;-80
2021/06/21 06:41:07;;;;;;;126.38;15.38;;;;;;;26.35;63.53;99806.80;1764485;81;21300;-80
2021/06/21 06:44:12;;;;;;;176.93;22.10;;;;;;;26.35;63.09;99806.80;1764487;81;21141;-80
2021/06/21 06:47:17;;;;;;;132.35;19.02;;;;;;;26.39;62.67;99807.32;1764480;81;21308;-80
2021/06/21 06:50:22;;;;;;;163.15;21.15;;;;;;;26.39;63.26;99812.92;1764435;81;21827;-80
2021/06/21 06:53:44;;;;;;;137.80;17.57;;;;;;;26.45;63.58;99817.98;1766609;81;21296;-80
2021/06/21 06:57:04;;;;;;;141.43;19.90;;;;;;;26.52;62.88;99810.05;1771355;81;21318;-80
2021/06/21 07:00:10;;;;;;;184.03;24.92;;;;;;;26.63;62.75;99804.64;1771790;81;21255;-80
2021/06/21 07:03:08;;;;;;;176.32;22.73;;;;;;;26.77;63.10;99813.17;1771759;81;21247;-80
2021/06/21 07:06:13;;;;;;;211.52;25.23;;;;;;;26.83;61.27;99816.23;1750283;81;21300;-80
2021/06/21 07:09:19;;;;;;;218.93;26.75;;;;;;;26.83;61.47;99818.20;1764447;81;21803;-80
2021/06/21 07:12:24;;;;;;;242.87;26.37;;;;;;;26.91;61.26;99813.32;1768541;81;21183;-80
2021/06/21 07:15:31;;;;;;;195.25;28.27;;;;;;;26.98;61.74;99818.03;1771700;81;21267;-80
2021/06/21 07:18:36;;;;;;;230.03;26.68;;;;;;;27.06;62.70;99817.96;1770512;81;21180;-80
2021/06/21 07:21:42;;;;;;;170.53;25.05;;;;;;;27.09;61.40;99825.23;1755392;81;21311;-80
2021/06/21 07:24:47;;;;;;;226.55;30.25;;;;;;;27.11;61.37;99815.95;1771827;81;21323;-80
2021/06/21 07:27:52;;;;;;;228.45;28.10;;;;;;;27.20;61.33;99825.41;1771883;81;21306;-80
2021/06/21 07:30:57;;;;;;;248.65;33.90;;;;;;;27.24;60.20;99829.29;1771915;81;21153;-80
2021/06/21 07:34:02;;;;;;;221.47;29.10;;;;;;;27.25;60.72;99829.55;1771840;81;21808;-80
2021/06/21 07:37:08;;;;;;;261.65;31.23;;;;;;;27.34;59.69;99833.11;1771042;81;21834;-80
2021/06/21 07:40:14;;;;;;;294.07;32.10;;;;;;;27.41;59.74;99823.17;1771907;81;21260;-80
2021/06/21 07:43:18;;;;;;;322.10;35.08;;;;;;;27.44;58.72;99819.78;1771861;81;21259;-80
2021/06/21 07:46:26;;;;;;;311.65;37.17;;;;;;;27.45;59.31;99818.63;1771753;81;21165;-80
2021/06/21 07:49:33;;;;;;;325.43;37.80;;;;;;;27.52;59.27;99814.04;1770419;80;21160;-80
2021/06/21 07:52:39;;;;;;;216.95;30.10;;;;;;;27.66;58.93;99822.00;1771922;81;21267;-80
2021/06/21 07:55:44;;;;;;;320.88;39.55;;;;;;;27.74;60.29;99818.55;1771905;81;21330;-80
2021/06/21 07:58:48;;;;;;;320.67;37.90;;;;;;;27.74;59.23;99820.53;1771868;81;21676;-80
2021/06/21 08:01:53;;;;;;;284.05;37.73;;;;;;;27.71;59.26;99826.72;1771971;80;21255;-80
2021/06/21 08:04:58;;;;;;;311.02;39.40;;;;;;;27.75;59.28;99825.84;1771810;81;21267;-80
2021/06/21 08:08:04;;;;;;;317.85;36.85;;;;;;;27.80;59.71;99823.53;1771906;81;21329;-80
2021/06/21 08:11:10;;;;;;;272.05;36.90;;;;;;;27.89;60.37;99818.91;1771865;81;21264;-80
2021/06/21 08:14:15;;;;;;;266.48;34.73;;;;;;;28.01;59.04;99818.47;1772107;80;21133;-80
2021/06/21 08:17:21;;;;;;;339.35;39.42;;;;;;;28.12;58.38;99822.78;1771794;81;21843;-80
2021/06/21 08:20:26;;;;;;;253.62;34.98;;;;;;;28.16;58.51;99825.25;1736292;82;21760;-80
2021/06/21 08:23:33;;;;;;;332.55;38.85;;;;;;;28.15;56.31;99832.02;1736904;82;21273;-80
2021/06/21 08:26:38;;;;;;;204.72;28.50;;;;;;;28.12;56.57;99820.55;1736408;82;21269;-80
2021/06/21 08:29:45;;;;;;;274.15;32.10;;;;;;;28.22;57.55;99824.59;1736863;82;21868;-80
2021/06/21 08:32:50;;;;;;;293.42;37.10;;;;;;;28.18;55.72;99819.31;1736826;82;21781;-80
2021/06/21 08:35:56;;;;;;;269.57;34.48;;;;;;;28.18;55.72;99819.31;1736676;82;21186;-80
2021/06/21 08:39:02;;;;;;;277.30;37.00;;;;;;;28.22;55.01;99826.84;1735657;82;21312;-80
2021/06/21 08:42:07;;;;;;;270.95;35.35;;;;;;;28.19;55.97;99827.47;1736194;82;21287;-80
2021/06/21 08:45:08;;;;;;;306.27;36.17;;;;;;;28.23;55.54;99828.53;1736764;82;21296;-80
2021/06/21 08:48:16;;;;;;;291.50;35.43;;;;;;;28.21;55.78;99839.23;1736501;82;21284;-80
2021/06/21 08:51:21;;;;;;;270.55;31.50;;;;;;;28.15;56.06;99832.59;1736268;82;21817;-80
2021/06/21 08:54:27;;;;;;;258.75;33.18;;;;;;;28.13;57.62;99839.08;1736417;82;21297;-80
2021/06/21 08:57:31;;;;;;;256.13;29.72;;;;;;;28.16;57.15;99840.72;1736222;82;21297;-80
2021/06/21 09:00:36;;;;;;;292.18;34.50;;;;;;;28.27;56.49;99839.41;1736457;82;21277;-80
2021/06/21 09:03:42;;;;;;;234.25;28.75;;;;;;;28.27;56.49;99839.41;1736344;82;21222;-80
2021/06/21 09:06:48;;;;;;;315.87;38.53;;;;;;;28.33;55.46;99836.55;1736313;82;21304;-80
2021/06/21 09:09:56;;;;;;;269.82;33.78;;;;;;;28.32;56.07;99830.06;1736375;82;21166;-80
2021/06/21 09:13:18;;;;;;;240.90;31.15;;;;;;;28.34;57.82;99834.86;1736927;82;21797;-80
2021/06/21 09:16:23;;;;;;;211.82;29.67;;;;;;;28.40;56.63;99832.22;1736433;82;21214;-80
2021/06/21 09:19:28;;;;;;;306.50;35.03;;;;;;;28.39;55.09;99833.94;1731546;81;21352;-80
2021/06/21 09:22:44;;;;;;;290.32;35.03;;;;;;;28.33;55.38;99833.73;1720210;83;21304;-80
2021/06/21 09:25:50;;;;;;;254.78;29.87;;;;;;;28.31;55.55;99834.02;1720252;83;21159;-80
2021/06/21 09:28:56;;;;;;;236.82;30.43;;;;;;;28.22;55.47;99833.03;1720242;83;21312;-80
2021/06/21 09:32:04;;;;;;;257.60;31.90;;;;;;;28.22;55.47;99833.03;1720262;83;21158;-80
2021/06/21 09:35:09;;;;;;;249.60;32.00;;;;;;;28.21;56.18;99832.78;1720252;83;21269;-80
2021/06/21 09:38:21;;;;;;;242.85;33.38;;;;;;;28.19;56.68;99829.45;1720028;83;21184;-80
2021/06/21 09:41:27;;;;;;;276.02;33.88;;;;;;;28.25;56.24;99833.84;1720098;83;21284;-80
2021/06/21 09:44:41;;;;;;;271.20;35.33;;;;;;;28.24;55.03;99841.45;1705424;83;21261;-80
2021/06/21 09:47:46;;;;;;;265.50;34.33;;;;;;;28.20;56.67;99831.95;1720272;83;22129;-80
2021/06/21 09:50:45;;;;;;;292.65;35.15;;;;;;;28.31;56.66;99837.41;1718643;83;21233;-80
2021/06/21 09:53:37;;;;;;;260.50;32.05;;;;;;;28.45;54.65;99845.36;1720295;83;21178;-80
2021/06/21 09:56:56;;;;;;;245.90;32.65;;;;;;;28.45;56.28;99833.53;1720197;83;21233;-80
2021/06/21 10:00:01;;;;;;;248.78;31.23;;;;;;;28.45;56.28;99833.53;1720331;83;21774;-80
2021/06/21 10:03:29;;;;;;;225.85;28.70;;;;;;;28.50;56.48;99832.62;1720257;83;21828;-80
2021/06/21 10:06:45;;;;;;;215.90;26.42;;;;;;;28.47;55.70;99837.47;1720255;83;21268;-80
2021/06/21 10:10:00;;;;;;;239.32;30.30;;;;;;;28.46;55.52;99846.45;1720257;83;21275;-80
2021/06/21 10:13:07;;;;;;;245.70;31.73;;;;;;;28.42;56.25;99841.74;1718832;83;21686;-80
2021/06/21 10:16:12;;;;;;;229.10;29.20;;;;;;;28.44;56.00;99835.26;1720282;83;21269;-80
2021/06/21 10:19:18;;;;;;;237.00;28.57;;;;;;;28.48;56.04;99837.73;1720236;83;21308;-80
2021/06/21 10:22:22;;;;;;;247.05;33.10;;;;;;;28.55;54.33;99828.88;1765232;80;21197;-80
2021/06/21 10:25:28;;;;;;;242.05;28.62;;;;;;;28.52;54.38;99833.16;1787336;80;21154;-80
2021/06/21 10:28:34;;;;;;;231.02;29.90;;;;;;;28.60;54.52;99833.02;1787379;80;21256;-80
2021/06/21 10:31:39;;;;;;;213.87;28.45;;;;;;;28.63;54.48;99816.36;1787365;80;21800;-80
2021/06/21 10:34:45;;;;;;;237.30;27.45;;;;;;;28.66;54.45;99831.80;1789242;80;21257;-80
2021/06/21 10:38:09;;;;;;;220.33;27.90;;;;;;;28.69;54.42;99826.95;1755467;80;21831;-80
2021/06/21 10:41:18;;;;;;;197.20;27.13;;;;;;;28.73;53.22;99831.65;1790275;80;21256;-80
2021/06/21 10:44:42;;;;;;;228.30;26.93;;;;;;;28.71;53.31;99825.51;1793046;80;21261;-80
2021/06/21 10:47:49;;;;;;;171.35;21.68;;;;;;;28.74;53.72;99817.84;1790493;80;21268;-80
2021/06/21 10:50:58;;;;;;;203.07;23.32;;;;;;;28.74;53.72;99817.84;1792713;80;21252;-80
2021/06/21 10:54:04;;;;;;;202.78;26.70;;;;;;;28.78;51.98;99830.72;1792762;80;21899;-80
2021/06/21 10:57:12;;;;;;;198.78;26.07;;;;;;;28.72;52.87;99834.20;1792993;80;21709;-80
2021/06/21 11:00:19;;;;;;;183.72;21.85;;;;;;;28.76;53.54;99827.39;1792813;80;21343;-80
2021/06/21 11:03:39;;;;;;;202.07;24.63;;;;;;;28.83;51.69;99830.63;1764929;80;21268;-80
2021/06/21 11:06:44;;;;;;;195.65;22.60;;;;;;;28.87;52.21;99835.08;1754958;82;21843;-80
2021/06/21 11:10:06;;;;;;;192.07;21.55;;;;;;;28.88;52.13;99824.91;1754903;81;21300;-80
2021/06/21 11:13:07;;;;;;;191.12;23.47;;;;;;;28.88;52.13;99824.91;1755000;82;21312;-80
2021/06/21 11:16:29;;;;;;;139.00;19.42;;;;;;;28.96;52.04;99816.36;1754984;82;21257;-80
2021/06/21 11:19:34;;;;;;;;;;;;;;;29.00;51.91;99821.64;1757651;82;21824;-80
2021/06/21 11:22:50;;;;;;;141.40;18.77;;;;;;;29.02;51.96;99821.57;1762796;81;20262;-80
2021/06/21 11:25:57;;;;;;;142.22;19.20;;;;;;;29.05;49.41;99820.13;1764475;81;21272;-80
2021/06/21 11:29:03;;;;;;;133.65;18.65;;;;;;;29.05;49.41;99820.13;1765031;81;21268;-80
2021/06/21 11:32:09;;;;;;;140.55;17.10;;;;;;;29.14;50.77;99821.66;1762665;81;21165;-80
2021/06/21 11:35:14;;;;;;;152.22;19.20;;;;;;;29.21;48.50;99817.27;1764990;81;21311;-80
2021/06/21 11:38:42;;;;;;;134.10;16.73;;;;;;;29.25;48.21;99811.84;1764963;81;21260;-80
2021/06/21 11:41:50;;;;;;;134.82;18.70;;;;;;;29.28;47.85;99817.70;1763164;81;21161;-80
2021/06/21 11:44:56;;;;;;;122.67;16.70;;;;;;;29.40;47.86;99814.92;1764162;81;21767;-80
2021/06/21 11:48:01;;;;;;;110.80;16.17;;;;;;;29.55;47.03;99818.87;1762748;81;21161;-80
2021/06/21 11:51:23;;;;;;;127.00;16.27;;;;;;;29.55;47.03;99818.87;1746536;82;21197;-80
2021/06/21 11:54:29;;;;;;;100.45;15.00;;;;;;;29.60;45.54;99808.91;1755025;82;21328;-80
2021/06/21 11:57:35;;;;;;;112.37;17.15;;;;;;;29.60;45.54;99808.91;1762909;81;21697;-80
2021/06/21 12:00:41;;;;;;;111.72;13.70;;;;;;;29.59;46.46;99806.38;1764751;81;21299;-80
2021/06/21 12:03:47;;;;;;;106.43;12.03;;;;;;;29.59;46.63;99802.98;1765408;81;21154;-80
2021/06/21 12:06:53;;;;;;;99.85;14.70;;;;;;;29.62;46.37;99800.95;1765222;81;21260;-80
2021/06/21 12:10:01;;;;;;;99.47;12.98;;;;;;;29.68;45.49;99797.44;1764985;81;21296;-80
2021/06/21 12:13:05;;;;;;;97.40;13.35;;;;;;;29.69;45.16;99792.06;1765014;81;21260;-80
2021/06/21 12:16:16;;;;;;;94.35;11.10;;;;;;;29.70;44.50;99795.16;1765255;81;21256;-80
2021/06/21 12:19:20;;;;;;;;;;;;;;;29.73;44.84;99792.52;1746819;82;21288;-80
2021/06/21 12:22:24;;;;;;;90.65;12.25;;;;;;;29.77;42.89;99785.11;1754671;81;20256;-80
2021/06/21 12:25:35;;;;;;;60.33;9.63;;;;;;;29.79;43.24;99789.87;1740207;82;21229;-80
2021/06/21 12:28:40;;;;;;;66.80;8.98;;;;;;;29.81;44.40;99785.89;1757828;81;21268;-80
2021/06/21 12:31:49;;;;;;;63.25;8.78;;;;;;;29.79;44.71;99794.09;1764722;81;21197;-80
2021/06/21 12:35:07;;;;;;;60.50;8.65;;;;;;;29.76;43.32;99787.67;1749502;81;21264;-80
2021/06/21 12:38:12;;;;;;;78.78;9.50;;;;;;;29.73;42.09;99790.28;1765170;81;21752;-80
2021/06/21 12:41:33;;;;;;;72.08;8.65;;;;;;;29.75;41.15;99775.31;1729824;81;21304;-80
2021/06/21 12:44:40;;;;;;;61.83;7.95;;;;;;;29.75;41.15;99775.31;1765283;81;21149;-80
2021/06/21 12:47:58;;;;;;;67.42;8.05;;;;;;;29.79;42.20;99781.41;1747972;81;21312;-80
2021/06/21 12:51:05;;;;;;;48.17;6.95;;;;;;;29.81;43.54;99774.04;1761605;81;21194;-80
2021/06/21 12:54:10;;;;;;;53.95;8.63;;;;;;;29.79;41.75;99777.19;1762657;81;21188;-80
2021/06/21 12:57:15;;;;;;;59.88;7.90;;;;;;;29.80;41.24;99772.37;1765035;81;21312;-80
2021/06/21 13:00:21;;;;;;;69.97;10.78;;;;;;;29.77;41.26;99776.66;1762672;81;21154;-80
2021/06/21 13:03:28;;;;;;;48.40;7.10;;;;;;;29.77;41.25;99776.66;1749402;82;21269;-80
2021/06/21 13:06:45;;;;;;;42.40;6.45;;;;;;;29.76;40.78;99776.40;1755394;82;21144;-80
2021/06/21 13:09:57;;;;;;;43.13;6.12;;;;;;;29.77;41.51;99782.28;1755979;81;21706;-80
2021/06/21 13:13:04;;;;;;;55.48;7.97;;;;;;;29.72;41.78;99782.98;1765284;81;21759;-80
2021/06/21 13:16:18;;;;;;;41.10;5.60;;;;;;;29.72;43.28;99782.41;1765422;81;21871;-80
2021/06/21 13:19:25;;;;;;;42.05;6.72;;;;;;;29.75;44.02;99778.97;1756002;79;21260;-80
2021/06/21 13:22:50;;;;;;;52.20;6.87;;;;;;;29.83;42.04;99788.66;1769542;81;21315;-80
2021/06/21 13:25:58;;;;;;;39.40;6.30;;;;;;;29.84;42.99;99790.91;1770200;80;21159;-80
2021/06/21 13:29:03;;;;;;;42.27;6.40;;;;;;;29.91;41.86;99791.29;1771035;81;21260;-80
2021/06/21 13:32:09;;;;;;;53.73;7.15;;;;;;;29.91;41.85;99784.24;1770403;81;21788;-80
2021/06/21 13:35:22;;;;;;;55.15;6.87;;;;;;;29.93;44.15;99781.95;1770265;80;21162;-80
2021/06/21 13:38:30;;;;;;;49.15;5.85;;;;;;;29.90;43.96;99770.72;1770401;80;21252;-80
2021/06/21 13:41:35;;;;;;;43.80;6.50;;;;;;;29.86;41.62;99782.95;1772335;80;21208;-80
2021/06/21 13:44:42;;;;;;;47.80;6.40;;;;;;;29.78;43.76;99771.30;1772107;81;21815;-80
2021/06/21 13:47:46;;;;;;;34.08;5.17;;;;;;;29.78;43.76;99771.30;1772039;81;21260;-80
2021/06/21 13:50:59;;;;;;;41.20;5.55;;;;;;;29.72;42.66;99781.00;1772322;80;21260;-80
2021/06/21 13:54:09;;;;;;;35.85;5.30;;;;;;;29.67;42.87;99776.89;1771314;81;21264;-80
2021/06/21 13:57:17;;;;;;;30.30;4.03;;;;;;;29.68;42.12;99778.55;1771282;80;21277;-80
2021/06/21 14:00:51;;;;;;;31.07;5.05;;;;;;;29.68;42.12;99778.55;1771023;81;21818;-80
2021/06/21 14:03:56;;;;;;;23.67;4.53;;;;;;;29.65;42.44;99774.97;1771838;80;21307;-80
2021/06/21 14:07:02;;;;;;;38.95;4.72;;;;;;;29.65;43.47;99780.61;1771654;80;21308;-80
2021/06/21 14:10:07;;;;;;;25.32;3.22;;;;;;;29.59;42.94;99777.63;1769398;81;21256;-80
2021/06/21 14:13:13;;;;;;;22.00;3.12;;;;;;;29.53;43.22;99779.70;1769357;80;21197;-80
2021/06/21 14:16:26;;;;;;;31.17;4.10;;;;;;;29.42;42.98;99766.99;1770268;79;21189;-80
2021/06/21 14:19:31;;;;;;;38.90;4.30;;;;;;;29.38;45.03;99771.58;1772141;81;21209;-80
2021/06/21 14:22:37;;;;;;;21.75;3.58;;;;;;;29.38;45.03;99771.58;1769656;81;21344;-80
2021/06/21 14:25:44;;;;;;;24.52;3.40;;;;;;;29.43;44.64;99772.05;1767472;81;21323;-80
2021/06/21 14:28:50;;;;;;;19.90;3.00;;;;;;;29.49;45.11;99770.20;1770029;81;21260;-80
2021/06/21 14:31:54;;;;;;;22.10;3.85;;;;;;;29.54;43.80;99777.70;1769991;81;21788;-80
2021/06/21 14:34:59;;;;;;;20.60;3.42;;;;;;;29.50;43.29;99773.84;1769988;81;21260;-80
2021/06/21 14:38:05;;;;;;;32.98;4.15;;;;;;;29.49;42.75;99774.42;1771143;80;21755;-80
2021/06/21 14:41:10;;;;;;;23.52;3.85;;;;;;;29.47;44.41;99771.68;1771770;80;21758;-80
2021/06/21 14:44:15;;;;;;;23.22;3.72;;;;;;;29.37;44.99;99764.86;1769640;80;21260;-80
2021/06/21 14:47:21;;;;;;;27.60;4.10;;;;;;;29.37;44.99;99764.86;1770662;81;21288;-80
2021/06/21 14:50:27;;;;;;;22.58;4.85;;;;;;;29.34;45.13;99767.72;1771526;81;21685;-80
2021/06/21 14:53:32;;;;;;;18.30;3.27;;;;;;;29.33;45.25;99767.47;1772291;80;21265;-80
2021/06/21 14:56:38;;;;;;;17.95;3.80;;;;;;;29.34;45.47;99766.89;1770257;80;21299;-80
2021/06/21 14:59:42;;;;;;;21.02;4.05;;;;;;;29.32;45.37;99767.80;1769445;81;21146;-80
2021/06/21 15:02:48;;;;;;;31.30;3.83;;;;;;;29.18;45.00;99774.84;1771425;81;21288;-80
2021/06/21 15:05:53;;;;;;;33.90;4.40;;;;;;;29.08;45.59;99773.61;1771308;81;21304;-80
2021/06/21 15:08:59;;;;;;;23.07;3.62;;;;;;;29.08;45.59;99773.61;1770437;81;21761;-80
2021/06/21 15:12:06;;;;;;;29.30;3.35;;;;;;;29.01;46.01;99765.59;1772004;80;21331;-80
2021/06/21 15:15:14;;;;;;;25.20;3.98;;;;;;;28.94;48.07;99763.17;1772132;80;21311;-80
2021/06/21 15:18:20;;;;;;;22.25;4.15;;;;;;;28.94;48.07;99763.17;1771742;81;21260;-80
2021/06/21 15:21:26;;;;;;;19.95;3.02;;;;;;;28.88;48.43;99770.59;1770081;80;21257;-80
2021/06/21 15:24:30;;;;;;;20.88;4.03;;;;;;;28.80;48.23;99764.30;1768723;80;21182;-80
2021/06/21 15:27:34;;;;;;;17.05;3.10;;;;;;;28.74;47.86;99759.32;1771957;81;21323;-80
2021/06/21 15:30:39;;;;;;;27.15;3.52;;;;;;;28.62;48.49;99771.09;1771865;80;21256;-80
2021/06/21 15:33:44;;;;;;;11.80;2.40;;;;;;;28.62;48.49;99771.09;1772196;80;21165;-80
2021/06/21 15:36:49;;;;;;;16.80;2.80;;;;;;;28.55;48.01;99773.45;1771981;81;21149;-80
2021/06/21 15:39:54;;;;;;;15.43;3.00;;;;;;;28.47;47.50;99764.34;1772413;80;21260;-80
2021/06/21 15:43:01;;;;;;;17.52;3.10;;;;;;;28.41;47.42;99769.77;1771907;81;21300;-80
2021/06/21 15:46:06;;;;;;;32.35;3.67;;;;;;;28.17;46.83;99773.50;1772325;80;21252;-80
2021/06/21 15:49:13;;;;;;;24.75;3.42;;;;;;;28.17;46.83;99773.50;1772180;81;21308;-80
2021/06/21 15:52:18;;;;;;;26.57;4.15;;;;;;;28.05;47.14;99776.54;1771557;80;21245;-80
2021/06/21 15:55:24;;;;;;;30.62;4.58;;;;;;;27.94;46.87;99775.84;1769514;81;21729;-80
2021/06/21 15:58:30;;;;;;;18.05;4.17;;;;;;;27.80;46.81;99777.73;1769425;81;21173;-80
2021/06/21 16:01:35;;;;;;;20.20;4.53;;;;;;;27.65;47.20;99778.20;1770436;81;21257;-80
2021/06/21 16:04:40;;;;;;;20.72;3.10;;;;;;;27.54;47.27;99779.48;1770801;81;21292;-80
2021/06/21 16:07:44;;;;;;;23.00;3.98;;;;;;;27.45;47.14;99784.10;1771220;81;21764;-80
2021/06/21 16:10:51;;;;;;;17.45;3.62;;;;;;;27.38;46.69;99780.81;1771366;80;21260;-80
2021/06/21 16:13:56;;;;;;;16.17;3.15;;;;;;;27.34;47.07;99779.77;1770292;81;21162;-80
2021/06/21 16:17:02;;;;;;;22.55;3.75;;;;;;;27.26;47.42;99779.28;1771386;80;21146;-80
2021/06/21 16:20:07;;;;;;;17.95;2.72;;;;;;;27.20;47.49;99775.44;1772284;80;21145;-80
2021/06/21 16:23:13;;;;;;;17.45;2.98;;;;;;;27.15;47.83;99781.13;1772179;81;21256;-80
2021/06/21 16:26:18;;;;;;;25.30;3.70;;;;;;;27.08;47.58;99770.23;1763208;80;21287;-80
2021/06/21 16:29:23;;;;;;;13.53;3.35;;;;;;;26.99;48.02;99765.80;1771735;81;21801;-80
2021/06/21 16:32:28;;;;;;;15.85;2.40;;;;;;;26.91;48.23;99771.23;1771873;81;21256;-80
2021/06/21 16:35:34;;;;;;;19.77;3.77;;;;;;;26.84;49.14;99776.38;1771942;81;21767;-80
2021/06/21 16:38:39;;;;;;;30.15;4.00;;;;;;;26.76;49.59;99770.83;1771869;81;21307;-80
2021/06/21 16:41:43;;;;;;;16.55;3.67;;;;;;;26.68;49.84;99779.92;1771905;81;21125;-80
2021/06/21 16:44:49;;;;;;;17.57;4.00;;;;;;;26.61;50.15;99771.83;1771830;81;21166;-80
2021/06/21 16:47:54;;;;;;;25.35;3.20;;;;;;;26.52;50.57;99776.41;1771831;81;21781;-80
2021/06/21 16:50:59;;;;;;;22.40;4.37;;;;;;;26.43;51.27;99768.36;1771896;81;21822;-80
2021/06/21 16:54:05;;;;;;;34.65;7.35;;;;;;;26.36;51.69;99773.45;1771883;81;21126;-80
2021/06/21 16:57:10;;;;;;;30.30;6.83;;;;;;;26.29;52.07;99777.14;1771832;81;21311;-80
2021/06/21 17:00:19;;;;;;;23.95;5.60;;;;;;;26.20;52.09;99776.92;1771711;81;21229;-80